createdAt,value
2018-06-13T00:01:45.771Z,23.47
2018-06-13T00:04:13.922Z,19.30
2018-06-13T00:06:42.113Z,18.23
2018-06-13T00:09:10.281Z,19.53
2018-06-13T00:11:38.445Z,16.80
2018-06-13T00:14:06.641Z,17.90
2018-06-13T00:16:34.560Z,17.53
2018-06-13T00:19:02.733Z,18.67
2018-06-13T00:21:30.897Z,16.70
2018-06-13T00:23:59.073Z,16.53
2018-06-13T00:26:27.259Z,20.20
2018-06-13T00:28:55.453Z,19.33
2018-06-13T00:31:23.645Z,18.13
2018-06-13T00:33:51.816Z,19.90
2018-06-13T00:36:20.002Z,16.63
2018-06-13T00:38:48.186Z,17.37
2018-06-13T00:41:16.110Z,16.93
2018-06-13T00:43:44.275Z,17.03
2018-06-13T00:46:12.445Z,17.27
2018-06-13T00:48:40.609Z,20.13
2018-06-13T00:51:08.769Z,18.30
2018-06-13T00:53:36.926Z,16.63
2018-06-13T00:56:16.321Z,18.87
2018-06-13T00:58:44.514Z,18.60
2018-06-13T01:01:12.691Z,18.17
2018-06-13T01:03:40.849Z,17.07
2018-06-13T01:06:09.019Z,16.67
2018-06-13T01:08:37.214Z,17.23
2018-06-13T01:11:05.371Z,18.83
2018-06-13T01:13:33.599Z,19.07
2018-06-13T01:16:01.770Z,16.97
2018-06-13T01:18:29.955Z,16.10
2018-06-13T01:20:58.143Z,17.20
2018-06-13T01:23:26.353Z,16.87
2018-06-13T01:25:54.526Z,19.87
2018-06-13T01:28:22.711Z,16.60
2018-06-13T01:30:50.893Z,16.73
2018-06-13T01:33:19.070Z,18.87
2018-06-13T01:35:47.247Z,17.03
2018-06-13T01:38:15.189Z,21.70
2018-06-13T01:40:43.394Z,16.87
2018-06-13T01:43:11.389Z,18.10
2018-06-13T01:45:39.654Z,20.23
2018-06-13T01:48:07.959Z,19.33
2018-06-13T01:50:36.260Z,20.47
2018-06-13T01:53:04.546Z,20.03
2018-06-13T01:55:32.929Z,20.43
2018-06-13T01:58:01.226Z,19.97
2018-06-13T02:00:29.309Z,20.20
2018-06-13T02:02:57.579Z,24.53
2018-06-13T02:05:25.649Z,20.40
2018-06-13T02:07:53.665Z,20.70
2018-06-13T02:10:21.911Z,21.67
2018-06-13T02:12:50.190Z,20.87
2018-06-13T02:15:18.443Z,22.43
2018-06-13T02:17:46.657Z,21.00
2018-06-13T02:20:14.929Z,18.30
2018-06-13T02:22:43.154Z,22.63
2018-06-13T02:25:11.362Z,23.77
2018-06-13T02:27:39.537Z,22.13
2018-06-13T02:30:07.705Z,21.83
2018-06-13T02:32:35.898Z,22.33
2018-06-13T02:35:04.077Z,25.37
2018-06-13T02:37:32.233Z,31.80
2018-06-13T02:40:00.419Z,25.20
2018-06-13T02:42:28.581Z,28.50
2018-06-13T02:44:56.755Z,26.27
2018-06-13T02:47:24.925Z,25.80
2018-06-13T02:49:53.099Z,25.67
2018-06-13T02:52:21.028Z,26.70
2018-06-13T02:54:49.195Z,29.43
2018-06-13T02:57:17.356Z,30.53
2018-06-13T02:59:45.526Z,28.53
2018-06-13T03:02:13.679Z,26.93
2018-06-13T03:04:41.898Z,27.17
2018-06-13T03:07:10.154Z,30.63
2018-06-13T03:09:38.448Z,31.50
2018-06-13T03:12:06.713Z,29.00
2018-06-13T03:14:35.050Z,25.77
2018-06-13T03:17:03.283Z,29.20
2018-06-13T03:19:31.535Z,27.07
2018-06-13T03:21:59.806Z,27.03
2018-06-13T03:24:28.069Z,30.73
2018-06-13T03:26:56.271Z,30.13
2018-06-13T03:29:24.497Z,30.40
2018-06-13T03:31:52.722Z,31.07
2018-06-13T03:34:21.060Z,32.30
2018-06-13T03:36:49.338Z,28.77
2018-06-13T03:39:17.572Z,30.77
2018-06-13T03:41:45.826Z,32.47
2018-06-13T03:44:14.063Z,32.47
2018-06-13T03:46:42.382Z,32.10
2018-06-13T03:49:10.608Z,31.33
2018-06-13T03:51:38.929Z,30.60
2018-06-13T03:54:07.212Z,29.23
2018-06-13T03:56:35.381Z,30.97
2018-06-13T03:59:03.537Z,30.87
2018-06-13T04:01:31.705Z,28.87
2018-06-13T04:03:59.868Z,32.23
2018-06-13T04:06:28.067Z,32.80
2018-06-13T04:08:56.250Z,31.17
2018-06-13T04:11:24.421Z,33.13
2018-06-13T04:13:52.598Z,33.10
2018-06-13T04:16:20.762Z,34.77
2018-06-13T04:18:48.917Z,36.67
2018-06-13T04:21:17.075Z,35.10
2018-06-13T04:23:45.246Z,34.77
2018-06-13T04:26:13.183Z,38.30
2018-06-13T04:28:42.189Z,31.27
2018-06-13T04:31:10.362Z,37.27
2018-06-13T04:33:38.542Z,33.03
2018-06-13T04:36:06.802Z,35.27
2018-06-13T04:38:34.985Z,46.80
2018-06-13T04:41:03.186Z,31.70
2018-06-13T04:43:31.382Z,32.87
2018-06-13T04:45:59.624Z,33.23
2018-06-13T04:48:27.561Z,33.47
2018-06-13T04:50:55.721Z,32.27
2018-06-13T04:53:23.877Z,31.93
2018-06-13T04:55:52.046Z,33.87
2018-06-13T04:58:20.286Z,36.30
2018-06-13T05:00:48.410Z,33.10
2018-06-13T05:03:16.559Z,33.97
2018-06-13T05:05:44.749Z,30.33
2018-06-13T05:08:12.918Z,25.33
2018-06-13T05:10:41.094Z,27.63
2018-06-13T05:13:09.284Z,28.63
2018-06-13T05:15:37.458Z,28.83
2018-06-13T05:18:05.633Z,26.63
2018-06-13T05:20:33.769Z,29.77
2018-06-13T05:23:01.931Z,30.60
2018-06-13T05:25:29.841Z,24.53
2018-06-13T05:27:58.014Z,23.93
2018-06-13T05:30:26.169Z,25.83
2018-06-13T05:32:54.414Z,28.30
2018-06-13T05:35:22.347Z,26.87
2018-06-13T05:37:50.561Z,22.23
2018-06-13T05:40:18.742Z,21.33
2018-06-13T05:42:46.660Z,22.47
2018-06-13T05:45:14.833Z,20.10
2018-06-13T05:47:43.022Z,20.37
2018-06-13T05:50:11.167Z,20.67
2018-06-13T05:52:39.354Z,18.43
2018-06-13T05:55:07.514Z,19.63
2018-06-13T05:57:35.697Z,17.00
2018-06-13T06:00:03.922Z,17.33
2018-06-13T06:02:32.104Z,19.17
2018-06-13T06:05:00.261Z,17.27
2018-06-13T06:07:28.463Z,16.10
2018-06-13T06:09:56.646Z,15.43
2018-06-13T06:12:24.806Z,14.40
2018-06-13T06:14:52.974Z,11.83
2018-06-13T06:17:21.149Z,12.17
2018-06-13T06:19:49.057Z,11.00
2018-06-13T06:22:17.287Z,11.43
2018-06-13T06:24:45.465Z,11.53
2018-06-13T06:27:13.420Z,7.77
2018-06-13T06:29:41.561Z,8.90
2018-06-13T06:32:09.734Z,7.27
2018-06-13T06:34:37.922Z,7.10
2018-06-13T06:37:06.114Z,9.73
2018-06-13T06:39:34.305Z,6.73
2018-06-13T06:42:02.508Z,7.40
2018-06-13T06:44:30.654Z,9.30
2018-06-13T06:46:58.586Z,6.90
2018-06-13T06:49:26.753Z,6.53
2018-06-13T06:51:54.949Z,9.93
2018-06-13T06:54:23.140Z,6.70
2018-06-13T06:56:51.313Z,6.20
2018-06-13T06:59:19.220Z,6.10
2018-06-13T07:01:47.385Z,6.10
2018-06-13T07:04:15.545Z,6.97
2018-06-13T07:06:43.694Z,5.43
2018-06-13T07:09:11.624Z,5.13
2018-06-13T07:11:39.784Z,3.67
2018-06-13T07:14:07.925Z,5.87
2018-06-13T07:16:36.093Z,7.73
2018-06-13T07:19:04.374Z,5.23
2018-06-13T07:21:32.461Z,4.10
2018-06-13T07:24:00.630Z,6.90
2018-06-13T07:26:28.761Z,3.47
2018-06-13T07:28:56.943Z,6.27
2018-06-13T07:31:25.090Z,5.43
2018-06-13T07:33:53.305Z,5.03
2018-06-13T07:36:21.473Z,5.43
2018-06-13T07:38:49.659Z,5.33
2018-06-13T07:41:17.864Z,6.03
2018-06-13T07:43:46.115Z,4.37
2018-06-13T07:46:14.281Z,5.10
2018-06-13T07:48:42.217Z,5.43
2018-06-13T07:51:10.407Z,5.47
2018-06-13T07:53:38.609Z,4.67
2018-06-13T07:56:06.790Z,4.30
2018-06-13T07:58:34.966Z,4.53
2018-06-13T08:01:03.126Z,3.53
2018-06-13T08:03:31.314Z,3.60
2018-06-13T08:05:59.458Z,3.50
2018-06-13T08:08:27.693Z,3.03
2018-06-13T08:10:55.784Z,2.90
2018-06-13T08:13:23.970Z,2.77
2018-06-13T08:15:52.117Z,2.70
2018-06-13T08:18:20.317Z,3.07
2018-06-13T08:20:48.493Z,2.43
2018-06-13T08:23:16.653Z,3.13
2018-06-13T08:25:44.866Z,2.53
2018-06-13T08:28:13.049Z,3.50
2018-06-13T08:30:41.218Z,1.90
2018-06-13T08:33:09.142Z,2.23
2018-06-13T08:35:37.356Z,2.00
2018-06-13T08:38:05.646Z,5.73
2018-06-13T08:40:33.802Z,2.10
2018-06-13T08:43:02.007Z,1.90
2018-06-13T08:45:30.179Z,2.73
2018-06-13T08:47:58.334Z,1.97
2018-06-13T08:50:26.517Z,3.33
2018-06-13T08:52:54.680Z,3.57
2018-06-13T08:55:22.879Z,2.97
2018-06-13T08:57:50.789Z,3.10
2018-06-13T09:00:18.986Z,2.77
2018-06-13T09:02:46.892Z,2.20
2018-06-13T09:05:15.070Z,2.23
2018-06-13T09:07:43.221Z,2.57
2018-06-13T09:10:11.434Z,3.93
2018-06-13T09:12:39.629Z,4.77
2018-06-13T09:15:07.809Z,6.97
2018-06-13T09:17:35.997Z,7.93
2018-06-13T09:20:04.182Z,8.37
2018-06-13T09:22:32.419Z,5.90
2018-06-13T09:25:00.541Z,5.87
2018-06-13T09:27:28.713Z,5.53
2018-06-13T09:29:56.638Z,6.57
2018-06-13T09:32:24.815Z,6.03
2018-06-13T09:34:53.098Z,6.60
2018-06-13T09:37:21.338Z,6.10
2018-06-13T09:39:50.610Z,7.50
2018-06-13T09:42:18.840Z,9.20
2018-06-13T09:44:47.080Z,5.67
2018-06-13T09:47:23.387Z,17.80
2018-06-13T09:49:43.470Z,5.43
2018-06-13T09:52:11.783Z,5.30
2018-06-13T09:54:39.718Z,20.83
2018-06-13T09:57:07.886Z,5.87
2018-06-13T09:59:40.326Z,5.10
2018-06-13T10:02:14.156Z,7.07
2018-06-13T10:04:42.383Z,6.63
2018-06-13T10:07:10.735Z,8.50
2018-06-13T10:09:38.925Z,4.40
2018-06-13T10:12:06.869Z,6.83
2018-06-13T10:14:35.040Z,4.80
2018-06-13T10:17:03.254Z,4.93
2018-06-13T10:19:31.225Z,5.47
2018-06-13T10:21:59.182Z,6.47
2018-06-13T10:24:27.161Z,4.80
2018-06-13T10:26:55.427Z,4.80
2018-06-13T10:29:23.685Z,5.90
2018-06-13T10:31:51.880Z,4.17
2018-06-13T10:34:19.804Z,4.90
2018-06-13T10:36:48.001Z,3.70
2018-06-13T10:39:16.223Z,3.53
2018-06-13T10:41:44.434Z,4.00
2018-06-13T10:44:12.637Z,6.47
2018-06-13T10:46:40.815Z,5.83
2018-06-13T10:49:08.724Z,4.23
2018-06-13T10:51:36.930Z,4.03
2018-06-13T10:54:05.130Z,4.00
2018-06-13T10:56:33.098Z,3.80
2018-06-13T10:59:01.280Z,5.20
2018-06-13T11:01:29.243Z,5.57
2018-06-13T11:03:57.158Z,4.63
2018-06-13T11:06:25.350Z,6.40
2018-06-13T11:08:53.539Z,6.27
2018-06-13T11:11:21.710Z,4.83
2018-06-13T11:13:49.898Z,5.07
2018-06-13T11:16:18.103Z,5.60
2018-06-13T11:18:46.294Z,5.73
2018-06-13T11:21:15.475Z,5.03
2018-06-13T11:23:43.696Z,5.20
2018-06-13T11:26:11.910Z,6.63
2018-06-13T11:28:40.103Z,5.43
2018-06-13T11:31:08.295Z,5.93
2018-06-13T11:33:36.497Z,5.30
2018-06-13T11:36:04.729Z,5.73
2018-06-13T11:38:32.943Z,5.90
2018-06-13T11:41:01.169Z,4.97
2018-06-13T11:43:29.324Z,4.97
2018-06-13T11:45:57.525Z,5.03
2018-06-13T11:48:25.741Z,4.80
2018-06-13T11:50:53.946Z,4.73
2018-06-13T11:53:22.144Z,6.60
2018-06-13T11:55:50.314Z,7.67
2018-06-13T11:58:18.277Z,6.80
2018-06-13T12:00:46.206Z,6.80
2018-06-13T12:03:14.385Z,10.60
2018-06-13T12:05:42.585Z,6.80
2018-06-13T12:08:10.782Z,6.43
2018-06-13T12:10:38.996Z,4.57
2018-06-13T12:13:07.202Z,4.43
2018-06-13T12:15:35.550Z,4.23
2018-06-13T12:18:03.745Z,4.10
2018-06-13T12:20:31.930Z,3.07
2018-06-13T12:23:00.117Z,3.07
2018-06-13T12:25:28.358Z,5.43
2018-06-13T12:27:56.554Z,3.60
2018-06-13T12:30:24.741Z,3.37
2018-06-13T12:32:52.713Z,3.97
2018-06-13T12:35:20.684Z,4.73
2018-06-13T12:37:48.910Z,4.70
2018-06-13T12:40:17.171Z,5.83
2018-06-13T12:42:45.314Z,5.57
2018-06-13T12:45:13.591Z,13.37
2018-06-13T12:47:41.845Z,10.77
2018-06-13T12:50:10.144Z,5.53
2018-06-13T12:52:38.383Z,3.33
2018-06-13T12:55:06.647Z,2.73
2018-06-13T12:57:34.866Z,5.13
2018-06-13T13:00:03.137Z,4.30
2018-06-13T13:02:31.505Z,3.37
2018-06-13T13:04:59.800Z,3.67
2018-06-13T13:07:28.140Z,4.10
2018-06-13T13:09:56.474Z,3.10
2018-06-13T13:12:24.780Z,3.33
2018-06-13T13:14:53.044Z,3.90
2018-06-13T13:17:21.293Z,4.17
2018-06-13T13:19:49.553Z,6.50
2018-06-13T13:22:17.833Z,4.07
2018-06-13T13:24:46.089Z,3.17
2018-06-13T13:27:14.492Z,6.27
2018-06-13T13:29:42.763Z,4.47
2018-06-13T13:32:10.915Z,4.30
2018-06-13T13:34:39.159Z,4.90
2018-06-13T13:37:07.361Z,4.13
2018-06-13T13:39:35.576Z,3.50
2018-06-13T13:42:03.806Z,4.43
2018-06-13T13:44:32.062Z,4.33
2018-06-13T13:47:00.265Z,4.73
2018-06-13T13:49:28.512Z,4.43
2018-06-13T13:51:56.703Z,3.53
2018-06-13T13:54:24.890Z,3.00
2018-06-13T13:56:53.085Z,2.97
2018-06-13T13:59:21.057Z,5.00
2018-06-13T14:01:49.222Z,3.10
2018-06-13T14:04:18.170Z,3.13
2018-06-13T14:06:46.350Z,3.47
2018-06-13T14:09:14.546Z,3.90
2018-06-13T14:11:42.808Z,4.47
2018-06-13T14:14:11.068Z,3.63
2018-06-13T14:16:39.342Z,5.73
2018-06-13T14:19:07.614Z,4.33
2018-06-13T14:21:35.818Z,3.90
2018-06-13T14:24:04.030Z,3.53
2018-06-13T14:26:31.996Z,4.33
2018-06-13T14:28:59.961Z,4.17
2018-06-13T14:31:27.941Z,4.73
2018-06-13T14:33:55.923Z,4.47
2018-06-13T14:36:24.174Z,5.43
2018-06-13T14:38:52.140Z,5.90
2018-06-13T14:41:20.112Z,4.53
2018-06-13T14:43:48.388Z,5.43
2018-06-13T14:46:16.713Z,5.10
2018-06-13T14:48:44.928Z,5.47
2018-06-13T14:51:13.266Z,7.37
2018-06-13T14:53:41.440Z,5.47
2018-06-13T14:56:15.016Z,5.60
2018-06-13T14:58:43.247Z,7.97
2018-06-13T15:01:11.491Z,6.17
2018-06-13T15:03:40.736Z,5.63
2018-06-13T15:06:09.013Z,6.27
2018-06-13T15:08:37.266Z,5.57
2018-06-13T15:11:05.881Z,5.83
2018-06-13T15:13:33.920Z,6.57
2018-06-13T15:16:02.229Z,5.23
2018-06-13T15:18:30.502Z,5.70
2018-06-13T15:20:58.578Z,6.27
2018-06-13T15:23:26.541Z,6.17
2018-06-13T15:25:54.842Z,6.57
2018-06-13T15:28:22.781Z,11.93
2018-06-13T15:30:51.032Z,6.50
2018-06-13T15:33:19.229Z,6.43
2018-06-13T15:35:47.518Z,5.90
2018-06-13T15:38:15.751Z,6.70
2018-06-13T15:40:44.015Z,5.77
2018-06-13T15:43:12.316Z,6.90
2018-06-13T15:45:40.630Z,7.93
2018-06-13T15:48:08.593Z,5.87
2018-06-13T15:50:36.923Z,5.97
2018-06-13T15:53:05.255Z,7.47
2018-06-13T15:55:33.262Z,6.40
2018-06-13T15:58:01.499Z,8.37
2018-06-13T16:00:29.468Z,8.53
2018-06-13T16:02:57.437Z,6.33
2018-06-13T16:05:25.762Z,7.10
2018-06-13T16:07:54.034Z,8.87
2018-06-13T16:10:22.322Z,7.23
2018-06-13T16:12:50.555Z,13.90
2018-06-13T16:15:18.920Z,7.57
2018-06-13T16:17:47.232Z,7.37
2018-06-13T16:20:15.483Z,6.70
2018-06-13T16:22:43.774Z,6.80
2018-06-13T16:25:12.094Z,7.47
2018-06-13T16:27:40.454Z,7.10
2018-06-13T16:30:08.824Z,6.93
2018-06-13T16:32:37.124Z,6.63
2018-06-13T16:35:05.377Z,7.17
2018-06-13T16:37:33.752Z,7.07
2018-06-13T16:40:02.026Z,8.77
2018-06-13T16:42:30.247Z,7.47
2018-06-13T16:44:58.527Z,9.93
2018-06-13T16:47:26.820Z,9.27
2018-06-13T16:49:54.834Z,8.20
2018-06-13T16:53:32.039Z,7.30
2018-06-13T16:56:00.289Z,8.63
2018-06-13T16:58:28.486Z,8.37
2018-06-13T17:00:56.682Z,9.03
2018-06-13T17:03:24.915Z,9.90
2018-06-13T17:05:53.101Z,8.97
2018-06-13T17:08:21.282Z,13.93
2018-06-13T17:10:49.473Z,12.83
2018-06-13T17:13:17.710Z,10.00
2018-06-13T17:15:45.901Z,11.93
2018-06-13T17:18:14.086Z,11.33
2018-06-13T17:20:42.390Z,10.07
2018-06-13T17:23:10.635Z,11.37
2018-06-13T17:25:38.806Z,12.10
2018-06-13T17:28:06.985Z,10.77
2018-06-13T17:30:35.180Z,10.70
2018-06-13T17:33:03.422Z,10.20
2018-06-13T17:35:31.655Z,10.23
2018-06-13T17:37:59.850Z,12.23
2018-06-13T17:40:28.020Z,10.77
2018-06-13T17:42:56.382Z,10.40
2018-06-13T17:45:24.546Z,10.90
2018-06-13T17:47:52.770Z,9.77
2018-06-13T17:50:20.952Z,10.20
2018-06-13T17:52:49.162Z,14.10
2018-06-13T17:55:17.397Z,13.77
2018-06-13T17:57:45.945Z,21.93
2018-06-13T18:00:13.865Z,9.73
2018-06-13T18:02:42.030Z,10.17
2018-06-13T18:05:10.218Z,11.43
2018-06-13T18:07:38.497Z,10.77
2018-06-13T18:10:06.729Z,11.37
2018-06-13T18:12:34.906Z,10.67
2018-06-13T18:15:03.103Z,10.47
2018-06-13T18:17:31.405Z,11.50
2018-06-13T18:19:59.665Z,12.13
2018-06-13T18:22:27.834Z,10.73
2018-06-13T18:24:56.142Z,11.30
2018-06-13T18:27:24.413Z,11.70
2018-06-13T18:29:52.535Z,11.40
2018-06-13T18:32:20.742Z,11.17
2018-06-13T18:34:48.925Z,10.37
2018-06-13T18:37:17.180Z,10.43
2018-06-13T18:39:45.451Z,11.40
2018-06-13T18:42:13.606Z,11.00
2018-06-13T18:44:42.146Z,10.70
2018-06-13T18:47:10.333Z,10.97
2018-06-13T18:49:38.571Z,11.20
2018-06-13T18:52:06.810Z,11.23
2018-06-13T18:54:35.002Z,13.03
2018-06-13T18:57:03.200Z,11.83
2018-06-13T18:59:31.370Z,11.30
2018-06-13T19:01:59.550Z,11.37
2018-06-13T19:04:27.883Z,13.60
2018-06-13T19:06:56.065Z,12.57
2018-06-13T19:09:24.264Z,11.30
2018-06-13T19:11:52.437Z,11.87
2018-06-13T19:14:20.622Z,12.10
2018-06-13T19:16:48.798Z,16.60
2018-06-13T19:19:17.079Z,11.47
2018-06-13T19:21:45.278Z,11.10
2018-06-13T19:24:13.502Z,13.40
2018-06-13T19:26:41.679Z,19.47
2018-06-13T19:29:09.850Z,14.90
2018-06-13T19:31:38.029Z,15.27
2018-06-13T19:34:06.202Z,13.07
2018-06-13T19:36:34.407Z,12.97
2018-06-13T19:39:02.670Z,13.63
2018-06-13T19:41:30.878Z,14.83
2018-06-13T19:43:59.098Z,13.23
2018-06-13T19:46:27.275Z,15.33
2018-06-13T19:48:55.854Z,18.97
2018-06-13T19:51:24.078Z,15.13
2018-06-13T19:53:57.717Z,18.03
2018-06-13T19:56:31.342Z,26.27
2018-06-13T19:58:59.627Z,28.60
2018-06-13T20:01:27.829Z,16.83
2018-06-13T20:04:01.262Z,14.83
2018-06-13T20:06:29.418Z,13.07
2018-06-13T20:08:57.642Z,12.70
2018-06-13T20:11:25.843Z,13.23
2018-06-13T20:13:59.382Z,13.03
2018-06-13T20:16:38.561Z,11.63
2018-06-13T20:19:12.259Z,13.27
2018-06-13T20:21:40.461Z,12.87
2018-06-13T20:24:08.670Z,13.20
2018-06-13T20:26:41.973Z,14.43
2018-06-13T20:29:15.454Z,11.53
2018-06-13T20:31:45.604Z,12.80
2018-06-13T20:34:13.836Z,9.70
2018-06-13T20:36:42.133Z,10.43
2018-06-13T20:39:11.081Z,10.50
2018-06-13T20:41:39.949Z,9.97
2018-06-13T20:44:08.522Z,10.43
2018-06-13T20:46:36.902Z,10.00
2018-06-13T20:49:05.339Z,12.60
2018-06-13T20:51:33.550Z,12.23
2018-06-13T20:54:01.789Z,11.47
2018-06-13T20:56:30.306Z,11.50
2018-06-13T20:58:58.462Z,10.00
2018-06-13T21:01:26.465Z,11.43
2018-06-13T21:03:54.763Z,10.03
2018-06-13T21:06:22.941Z,11.23
2018-06-13T21:08:51.104Z,10.17
2018-06-13T21:11:19.282Z,11.63
2018-06-13T21:13:47.451Z,9.87
2018-06-13T21:16:16.190Z,9.60
2018-06-13T21:18:44.158Z,10.67
2018-06-13T21:21:12.336Z,8.90
2018-06-13T21:23:40.301Z,8.97
2018-06-13T21:26:08.481Z,8.93
2018-06-13T21:28:36.440Z,10.87
2018-06-13T21:31:04.648Z,16.70
2018-06-13T21:33:32.877Z,14.07
2018-06-13T21:36:01.052Z,13.80
2018-06-13T21:38:29.297Z,13.73
2018-06-13T21:40:57.504Z,13.47
2018-06-13T21:43:25.710Z,11.47
2018-06-13T21:45:53.902Z,12.33
2018-06-13T21:48:22.074Z,11.93
2018-06-13T21:50:50.265Z,10.97
2018-06-13T21:53:18.414Z,10.90
2018-06-13T21:55:46.595Z,11.27
2018-06-13T21:58:14.781Z,12.27
2018-06-13T22:00:42.953Z,11.23
2018-06-13T22:03:11.114Z,11.67
2018-06-13T22:05:39.272Z,10.70
2018-06-13T22:08:07.487Z,10.63
2018-06-13T22:10:35.661Z,10.83
2018-06-13T22:13:03.826Z,11.97
2018-06-13T22:15:32.014Z,12.67
2018-06-13T22:18:00.193Z,13.13
2018-06-13T22:20:28.471Z,12.87
2018-06-13T22:22:56.726Z,12.50
2018-06-13T22:25:24.909Z,13.60
2018-06-13T22:27:53.105Z,14.90
2018-06-13T22:30:21.304Z,15.90
2018-06-13T22:32:49.492Z,22.87
2018-06-13T22:35:17.426Z,12.23
2018-06-13T22:37:45.586Z,12.63
2018-06-13T22:40:13.777Z,13.50
2018-06-13T22:42:41.976Z,14.93
2018-06-13T22:45:10.109Z,13.53
2018-06-13T22:47:38.294Z,16.87
2018-06-13T22:50:06.488Z,13.40
2018-06-13T22:52:34.684Z,21.90
2018-06-13T22:55:02.882Z,16.23
2018-06-13T22:57:31.062Z,13.23
2018-06-13T22:59:59.298Z,14.47
2018-06-13T23:02:27.472Z,14.90
2018-06-13T23:04:55.400Z,13.03
2018-06-13T23:07:23.614Z,12.70
2018-06-13T23:09:51.554Z,12.80
2018-06-13T23:12:19.762Z,13.27
2018-06-13T23:14:47.921Z,13.17
2018-06-13T23:17:16.106Z,14.07
2018-06-13T23:19:44.099Z,14.77
2018-06-13T23:22:12.219Z,17.73
2018-06-13T23:24:40.394Z,12.47
2018-06-13T23:27:08.609Z,13.17
2018-06-13T23:29:36.789Z,13.10
2018-06-13T23:32:04.965Z,15.87
2018-06-13T23:34:33.165Z,13.13
2018-06-13T23:37:01.334Z,13.53
2018-06-13T23:39:29.506Z,13.33
2018-06-13T23:41:57.727Z,13.37
2018-06-13T23:44:25.914Z,14.90
2018-06-13T23:46:54.096Z,13.17
2018-06-13T23:49:22.272Z,12.37
2018-06-13T23:51:50.252Z,13.50
2018-06-13T23:54:18.413Z,13.43
2018-06-13T23:56:46.367Z,14.97
2018-06-13T23:59:14.557Z,13.23
